Hauptseite
METAR-TAF:

METAR-TAF

Flughäfen :

Izmir, Türkei

Breite: 38-30N, Länge: 027-01E, Höhe: 5 m

METAR: fehlend

Zeit: 06:57 (03:57 UTC)

Prognose

Neuester Wetterbericht von vor 2 Stunden und 17 Minuten, um 01:40 UTC
Gültige Prognose vom 06 um 03 UTC bis 06 um 12 UTC
Wind 7 kt aus Nord
Sichtweite 10 km oder mehr
keine Wolken unter 1500 m und keine Kumulonimbus oder Gewitterwolken

TAF: LTBL 060140Z 0603/0612 01007KT CAVOK

Wetterbeobachtungen und Prognosen von mehr als 4000 Flughäfen (METAR und TAF Bericht).

Die verfügbaren Stationen werden durch gelbe und rote Markierungen auf der Karte dargestellt.

Führen Sie die Maus auf sie, um den Namen der Station zu sehen.

Darauf klicken, um die Beobachtung von Wetterbeobachtungen und Prognosen zu sehen.

Um die Karte zu ändern : klicken Sie auf den grünen Tasten mit einem schwarzen Kreuz Zum Vergrößern, auf den grünen Button mit einem Gedankenstrich zu verkleinern, oder auf die grünen Pfeile für benachbarte Karten.


METAR-TAF: